sensor_id;sensor_type;location;lat;lon;timestamp;temperature;humidity
32787;DHT22;19139;49.372;8.580;2024-02-23T00:01:07;9.60;99.90
32787;DHT22;19139;49.372;8.580;2024-02-23T00:03:35;9.60;99.90
32787;DHT22;19139;49.372;8.580;2024-02-23T00:06:03;9.60;99.90
32787;DHT22;19139;49.372;8.580;2024-02-23T00:08:30;9.60;99.90
32787;DHT22;19139;49.372;8.580;2024-02-23T00:10:57;9.60;99.90
32787;DHT22;19139;49.372;8.580;2024-02-23T00:13:24;9.50;99.90
32787;DHT22;19139;49.372;8.580;2024-02-23T00:15:50;9.50;99.90
32787;DHT22;19139;49.372;8.580;2024-02-23T00:18:18;9.50;99.90
32787;DHT22;19139;49.372;8.580;2024-02-23T00:20:46;9.40;99.90
32787;DHT22;19139;49.372;8.580;2024-02-23T00:23:13;9.40;99.90
32787;DHT22;19139;49.372;8.580;2024-02-23T00:25:40;9.40;99.90
32787;DHT22;19139;49.372;8.580;2024-02-23T00:28:07;9.40;99.90
32787;DHT22;19139;49.372;8.580;2024-02-23T00:30:34;9.30;99.90
32787;DHT22;19139;49.372;8.580;2024-02-23T00:33:01;9.40;99.90
32787;DHT22;19139;49.372;8.580;2024-02-23T00:35:28;9.40;99.90
32787;DHT22;19139;49.372;8.580;2024-02-23T00:37:54;9.30;99.90
32787;DHT22;19139;49.372;8.580;2024-02-23T00:40:21;9.30;99.90
32787;DHT22;19139;49.372;8.580;2024-02-23T00:42:50;9.20;99.90
32787;DHT22;19139;49.372;8.580;2024-02-23T00:45:16;9.20;99.90
32787;DHT22;19139;49.372;8.580;2024-02-23T00:47:43;9.10;99.90
32787;DHT22;19139;49.372;8.580;2024-02-23T00:50:10;9.10;99.90
32787;DHT22;19139;49.372;8.580;2024-02-23T00:52:37;9.10;99.90
32787;DHT22;19139;49.372;8.580;2024-02-23T00:55:04;9.10;99.90
32787;DHT22;19139;49.372;8.580;2024-02-23T00:57:31;9.10;99.90
32787;DHT22;19139;49.372;8.580;2024-02-23T00:59:57;9.10;99.90
32787;DHT22;19139;49.372;8.580;2024-02-23T01:02:24;9.10;99.90
32787;DHT22;19139;49.372;8.580;2024-02-23T01:04:51;9.10;99.90
32787;DHT22;19139;49.372;8.580;2024-02-23T01:07:23;9.10;99.90
32787;DHT22;19139;49.372;8.580;2024-02-23T01:09:50;9.00;99.90
32787;DHT22;19139;49.372;8.580;2024-02-23T01:12:17;9.00;99.90
32787;DHT22;19139;49.372;8.580;2024-02-23T01:14:43;9.00;99.90
32787;DHT22;19139;49.372;8.580;2024-02-23T01:17:10;9.00;99.90
32787;DHT22;19139;49.372;8.580;2024-02-23T01:19:37;8.90;99.90
32787;DHT22;19139;49.372;8.580;2024-02-23T01:22:04;8.80;99.90
32787;DHT22;19139;49.372;8.580;2024-02-23T01:24:30;8.90;99.90
32787;DHT22;19139;49.372;8.580;2024-02-23T01:26:58;8.80;99.90
32787;DHT22;19139;49.372;8.580;2024-02-23T01:29:25;8.80;99.90
32787;DHT22;19139;49.372;8.580;2024-02-23T01:31:53;8.80;99.90
32787;DHT22;19139;49.372;8.580;2024-02-23T01:34:21;8.80;99.90
32787;DHT22;19139;49.372;8.580;2024-02-23T01:36:48;8.80;99.90
32787;DHT22;19139;49.372;8.580;2024-02-23T01:39:15;8.80;99.90
32787;DHT22;19139;49.372;8.580;2024-02-23T01:41:42;8.80;99.90
32787;DHT22;19139;49.372;8.580;2024-02-23T01:44:11;8.80;99.90
32787;DHT22;19139;49.372;8.580;2024-02-23T01:46:38;8.90;99.90
32787;DHT22;19139;49.372;8.580;2024-02-23T01:49:06;8.80;99.90
32787;DHT22;19139;49.372;8.580;2024-02-23T01:51:34;8.80;99.90
32787;DHT22;19139;49.372;8.580;2024-02-23T01:54:02;8.80;99.90
32787;DHT22;19139;49.372;8.580;2024-02-23T01:56:29;8.90;99.90
32787;DHT22;19139;49.372;8.580;2024-02-23T01:58:56;8.90;99.90
32787;DHT22;19139;49.372;8.580;2024-02-23T02:01:23;8.90;99.90
32787;DHT22;19139;49.372;8.580;2024-02-23T02:03:50;8.90;99.90
32787;DHT22;19139;49.372;8.580;2024-02-23T02:06:17;8.80;99.90
32787;DHT22;19139;49.372;8.580;2024-02-23T02:08:44;8.90;99.90
32787;DHT22;19139;49.372;8.580;2024-02-23T02:11:12;8.90;99.90
32787;DHT22;19139;49.372;8.580;2024-02-23T02:13:38;8.70;99.90
32787;DHT22;19139;49.372;8.580;2024-02-23T02:16:05;8.50;99.90
32787;DHT22;19139;49.372;8.580;2024-02-23T02:18:32;8.30;99.90
32787;DHT22;19139;49.372;8.580;2024-02-23T02:20:59;8.30;99.90
32787;DHT22;19139;49.372;8.580;2024-02-23T02:23:26;8.30;99.90
32787;DHT22;19139;49.372;8.580;2024-02-23T02:25:54;8.30;99.90
32787;DHT22;19139;49.372;8.580;2024-02-23T02:28:21;8.20;99.90
32787;DHT22;19139;49.372;8.580;2024-02-23T02:30:49;8.10;99.90
32787;DHT22;19139;49.372;8.580;2024-02-23T02:33:15;8.10;99.90
32787;DHT22;19139;49.372;8.580;2024-02-23T02:35:42;8.10;99.90
32787;DHT22;19139;49.372;8.580;2024-02-23T02:38:10;8.00;99.90
32787;DHT22;19139;49.372;8.580;2024-02-23T02:40:37;8.00;99.90
32787;DHT22;19139;49.372;8.580;2024-02-23T02:43:04;7.90;99.90
32787;DHT22;19139;49.372;8.580;2024-02-23T02:45:32;8.10;99.90
32787;DHT22;19139;49.372;8.580;2024-02-23T02:48:00;8.10;99.90
32787;DHT22;19139;49.372;8.580;2024-02-23T02:50:28;8.00;99.90
32787;DHT22;19139;49.372;8.580;2024-02-23T02:52:54;8.10;99.90
32787;DHT22;19139;49.372;8.580;2024-02-23T02:55:21;8.20;99.90
32787;DHT22;19139;49.372;8.580;2024-02-23T02:57:48;8.20;99.90
32787;DHT22;19139;49.372;8.580;2024-02-23T03:00:15;8.30;99.90
32787;DHT22;19139;49.372;8.580;2024-02-23T03:02:41;8.40;99.90
32787;DHT22;19139;49.372;8.580;2024-02-23T03:05:08;8.40;99.90
32787;DHT22;19139;49.372;8.580;2024-02-23T03:07:35;8.50;99.90
32787;DHT22;19139;49.372;8.580;2024-02-23T03:10:02;8.50;99.90
32787;DHT22;19139;49.372;8.580;2024-02-23T03:12:29;8.30;99.90
32787;DHT22;19139;49.372;8.580;2024-02-23T03:14:55;8.30;99.90
32787;DHT22;19139;49.372;8.580;2024-02-23T03:17:22;8.30;99.90
32787;DHT22;19139;49.372;8.580;2024-02-23T03:19:49;8.40;99.90
32787;DHT22;19139;49.372;8.580;2024-02-23T03:22:19;8.40;99.90
32787;DHT22;19139;49.372;8.580;2024-02-23T03:24:46;8.40;99.90
32787;DHT22;19139;49.372;8.580;2024-02-23T03:27:12;8.50;99.90
32787;DHT22;19139;49.372;8.580;2024-02-23T03:29:39;8.50;99.90
32787;DHT22;19139;49.372;8.580;2024-02-23T03:32:07;8.50;99.90
32787;DHT22;19139;49.372;8.580;2024-02-23T03:34:35;8.60;99.90
32787;DHT22;19139;49.372;8.580;2024-02-23T03:37:01;8.60;99.90
32787;DHT22;19139;49.372;8.580;2024-02-23T03:39:29;8.60;99.90
32787;DHT22;19139;49.372;8.580;2024-02-23T03:41:56;8.50;99.90
32787;DHT22;19139;49.372;8.580;2024-02-23T03:44:22;8.60;99.90
32787;DHT22;19139;49.372;8.580;2024-02-23T03:46:50;8.50;99.90
32787;DHT22;19139;49.372;8.580;2024-02-23T03:49:16;8.50;99.90
32787;DHT22;19139;49.372;8.580;2024-02-23T03:51:43;8.50;99.90
32787;DHT22;19139;49.372;8.580;2024-02-23T03:54:10;8.50;99.90
32787;DHT22;19139;49.372;8.580;2024-02-23T03:56:40;8.50;99.90
32787;DHT22;19139;49.372;8.580;2024-02-23T03:59:10;8.50;99.90
32787;DHT22;19139;49.372;8.580;2024-02-23T04:01:38;8.50;99.90
32787;DHT22;19139;49.372;8.580;2024-02-23T04:04:06;8.50;99.90
32787;DHT22;19139;49.372;8.580;2024-02-23T04:06:33;8.50;99.90
32787;DHT22;19139;49.372;8.580;2024-02-23T04:09:01;8.50;99.90
32787;DHT22;19139;49.372;8.580;2024-02-23T04:11:27;8.50;99.90
32787;DHT22;19139;49.372;8.580;2024-02-23T04:13:54;8.40;99.90
32787;DHT22;19139;49.372;8.580;2024-02-23T04:16:24;8.40;99.90
32787;DHT22;19139;49.372;8.580;2024-02-23T04:18:52;8.30;99.90
32787;DHT22;19139;49.372;8.580;2024-02-23T04:21:19;8.30;99.90
32787;DHT22;19139;49.372;8.580;2024-02-23T04:23:46;8.30;99.90
32787;DHT22;19139;49.372;8.580;2024-02-23T04:26:13;8.30;99.90
32787;DHT22;19139;49.372;8.580;2024-02-23T04:28:41;8.30;99.90
32787;DHT22;19139;49.372;8.580;2024-02-23T04:31:08;8.30;99.90
32787;DHT22;19139;49.372;8.580;2024-02-23T04:33:36;8.20;99.90
32787;DHT22;19139;49.372;8.580;2024-02-23T04:36:03;8.20;99.90
32787;DHT22;19139;49.372;8.580;2024-02-23T04:38:31;8.20;99.90
32787;DHT22;19139;49.372;8.580;2024-02-23T04:40:58;8.20;99.90
32787;DHT22;19139;49.372;8.580;2024-02-23T04:43:25;8.20;99.90
32787;DHT22;19139;49.372;8.580;2024-02-23T04:45:52;8.20;99.90
32787;DHT22;19139;49.372;8.580;2024-02-23T04:48:18;8.30;99.90
32787;DHT22;19139;49.372;8.580;2024-02-23T04:50:45;8.20;99.90
32787;DHT22;19139;49.372;8.580;2024-02-23T04:53:12;8.20;99.90
32787;DHT22;19139;49.372;8.580;2024-02-23T04:55:38;8.20;99.90
32787;DHT22;19139;49.372;8.580;2024-02-23T04:58:06;8.20;99.90
32787;DHT22;19139;49.372;8.580;2024-02-23T05:00:33;8.10;99.90
32787;DHT22;19139;49.372;8.580;2024-02-23T05:03:00;8.10;99.90
32787;DHT22;19139;49.372;8.580;2024-02-23T05:05:30;8.10;99.90
32787;DHT22;19139;49.372;8.580;2024-02-23T05:07:58;8.10;99.90
32787;DHT22;19139;49.372;8.580;2024-02-23T05:10:26;8.10;99.90
32787;DHT22;19139;49.372;8.580;2024-02-23T05:12:53;8.00;99.90
32787;DHT22;19139;49.372;8.580;2024-02-23T05:15:19;8.00;99.90
32787;DHT22;19139;49.372;8.580;2024-02-23T05:17:46;8.00;99.90
32787;DHT22;19139;49.372;8.580;2024-02-23T05:20:14;7.90;99.90
32787;DHT22;19139;49.372;8.580;2024-02-23T05:22:41;7.90;99.90
32787;DHT22;19139;49.372;8.580;2024-02-23T05:25:07;7.90;99.90
32787;DHT22;19139;49.372;8.580;2024-02-23T05:27:34;7.90;99.90
32787;DHT22;19139;49.372;8.580;2024-02-23T05:30:01;7.90;99.90
32787;DHT22;19139;49.372;8.580;2024-02-23T05:32:28;7.90;99.90
32787;DHT22;19139;49.372;8.580;2024-02-23T05:34:55;8.00;99.90
32787;DHT22;19139;49.372;8.580;2024-02-23T05:37:23;8.00;99.90
32787;DHT22;19139;49.372;8.580;2024-02-23T05:39:50;8.00;99.90
32787;DHT22;19139;49.372;8.580;2024-02-23T05:42:18;8.00;99.90
32787;DHT22;19139;49.372;8.580;2024-02-23T05:44:44;8.00;99.90
32787;DHT22;19139;49.372;8.580;2024-02-23T05:47:11;8.00;99.90
32787;DHT22;19139;49.372;8.580;2024-02-23T05:49:40;8.00;99.90
32787;DHT22;19139;49.372;8.580;2024-02-23T05:52:07;7.90;99.90
32787;DHT22;19139;49.372;8.580;2024-02-23T05:54:34;7.90;99.90
32787;DHT22;19139;49.372;8.580;2024-02-23T05:57:00;7.90;99.90
32787;DHT22;19139;49.372;8.580;2024-02-23T05:59:27;7.90;99.90
32787;DHT22;19139;49.372;8.580;2024-02-23T06:01:54;7.90;99.90
32787;DHT22;19139;49.372;8.580;2024-02-23T06:04:23;8.00;99.90
32787;DHT22;19139;49.372;8.580;2024-02-23T06:06:50;7.90;99.90
32787;DHT22;19139;49.372;8.580;2024-02-23T06:09:17;8.00;99.90
32787;DHT22;19139;49.372;8.580;2024-02-23T06:11:45;7.90;99.90
32787;DHT22;19139;49.372;8.580;2024-02-23T06:14:12;8.00;99.90
32787;DHT22;19139;49.372;8.580;2024-02-23T06:16:39;8.00;99.90
32787;DHT22;19139;49.372;8.580;2024-02-23T06:19:07;7.90;99.90
32787;DHT22;19139;49.372;8.580;2024-02-23T06:21:33;7.90;99.90
32787;DHT22;19139;49.372;8.580;2024-02-23T06:24:00;7.90;99.90
32787;DHT22;19139;49.372;8.580;2024-02-23T06:26:27;7.80;99.90
32787;DHT22;19139;49.372;8.580;2024-02-23T06:28:54;7.90;99.90
32787;DHT22;19139;49.372;8.580;2024-02-23T06:31:20;7.90;99.90
32787;DHT22;19139;49.372;8.580;2024-02-23T06:33:47;7.80;99.90
32787;DHT22;19139;49.372;8.580;2024-02-23T06:36:16;7.80;99.90
32787;DHT22;19139;49.372;8.580;2024-02-23T06:38:43;7.80;99.90
32787;DHT22;19139;49.372;8.580;2024-02-23T06:41:11;7.70;99.90
32787;DHT22;19139;49.372;8.580;2024-02-23T06:43:38;7.70;99.90
32787;DHT22;19139;49.372;8.580;2024-02-23T06:46:07;7.60;99.90
32787;DHT22;19139;49.372;8.580;2024-02-23T06:48:35;7.60;99.90
32787;DHT22;19139;49.372;8.580;2024-02-23T06:51:03;7.60;99.90
32787;DHT22;19139;49.372;8.580;2024-02-23T06:53:30;7.60;99.90
32787;DHT22;19139;49.372;8.580;2024-02-23T06:55:57;7.50;99.90
32787;DHT22;19139;49.372;8.580;2024-02-23T06:58:25;7.50;99.90
32787;DHT22;19139;49.372;8.580;2024-02-23T07:00:52;7.50;99.90
32787;DHT22;19139;49.372;8.580;2024-02-23T07:03:19;7.40;99.90
32787;DHT22;19139;49.372;8.580;2024-02-23T07:05:46;7.40;99.90
32787;DHT22;19139;49.372;8.580;2024-02-23T07:08:14;7.40;99.90
32787;DHT22;19139;49.372;8.580;2024-02-23T07:10:41;7.40;99.90
32787;DHT22;19139;49.372;8.580;2024-02-23T07:13:08;7.40;99.90
32787;DHT22;19139;49.372;8.580;2024-02-23T07:15:35;7.40;99.90
32787;DHT22;19139;49.372;8.580;2024-02-23T07:18:05;7.40;99.90
32787;DHT22;19139;49.372;8.580;2024-02-23T07:20:32;7.40;99.90
32787;DHT22;19139;49.372;8.580;2024-02-23T07:22:58;7.30;99.90
32787;DHT22;19139;49.372;8.580;2024-02-23T07:25:25;7.30;99.90
32787;DHT22;19139;49.372;8.580;2024-02-23T07:27:52;7.30;99.90
32787;DHT22;19139;49.372;8.580;2024-02-23T07:30:19;7.40;99.90
32787;DHT22;19139;49.372;8.580;2024-02-23T07:32:46;7.40;99.90
32787;DHT22;19139;49.372;8.580;2024-02-23T07:35:18;7.40;99.90
32787;DHT22;19139;49.372;8.580;2024-02-23T07:37:45;7.40;99.90
32787;DHT22;19139;49.372;8.580;2024-02-23T07:40:12;7.30;99.90
32787;DHT22;19139;49.372;8.580;2024-02-23T07:42:39;7.40;99.90
32787;DHT22;19139;49.372;8.580;2024-02-23T07:45:07;7.40;99.90
32787;DHT22;19139;49.372;8.580;2024-02-23T07:47:33;7.40;99.90
32787;DHT22;19139;49.372;8.580;2024-02-23T07:50:01;7.40;99.90
32787;DHT22;19139;49.372;8.580;2024-02-23T07:52:27;7.30;99.90
32787;DHT22;19139;49.372;8.580;2024-02-23T07:54:54;7.30;99.90
32787;DHT22;19139;49.372;8.580;2024-02-23T07:57:21;7.40;99.90
32787;DHT22;19139;49.372;8.580;2024-02-23T07:59:48;7.50;99.90
32787;DHT22;19139;49.372;8.580;2024-02-23T08:02:15;7.50;99.90
32787;DHT22;19139;49.372;8.580;2024-02-23T08:04:42;7.60;99.90
32787;DHT22;19139;49.372;8.580;2024-02-23T08:07:09;7.70;99.90
32787;DHT22;19139;49.372;8.580;2024-02-23T08:09:36;7.80;99.90
32787;DHT22;19139;49.372;8.580;2024-02-23T08:12:03;7.90;99.90
32787;DHT22;19139;49.372;8.580;2024-02-23T08:14:30;8.00;99.90
32787;DHT22;19139;49.372;8.580;2024-02-23T08:16:57;8.20;99.90
32787;DHT22;19139;49.372;8.580;2024-02-23T08:19:24;8.30;99.90
32787;DHT22;19139;49.372;8.580;2024-02-23T08:21:50;8.30;99.90
32787;DHT22;19139;49.372;8.580;2024-02-23T08:24:17;8.40;99.90
32787;DHT22;19139;49.372;8.580;2024-02-23T08:26:44;8.40;99.90
32787;DHT22;19139;49.372;8.580;2024-02-23T08:29:11;8.50;99.90
32787;DHT22;19139;49.372;8.580;2024-02-23T08:31:38;8.50;99.90
32787;DHT22;19139;49.372;8.580;2024-02-23T08:34:08;8.50;99.90
32787;DHT22;19139;49.372;8.580;2024-02-23T08:36:34;8.50;99.90
32787;DHT22;19139;49.372;8.580;2024-02-23T08:39:01;8.60;99.90
32787;DHT22;19139;49.372;8.580;2024-02-23T08:41:29;8.70;99.90
32787;DHT22;19139;49.372;8.580;2024-02-23T08:43:56;8.80;99.90
32787;DHT22;19139;49.372;8.580;2024-02-23T08:46:23;8.70;99.90
32787;DHT22;19139;49.372;8.580;2024-02-23T08:48:49;8.80;99.90
32787;DHT22;19139;49.372;8.580;2024-02-23T08:51:16;8.80;99.90
32787;DHT22;19139;49.372;8.580;2024-02-23T08:53:43;8.90;99.90
32787;DHT22;19139;49.372;8.580;2024-02-23T08:56:11;9.00;99.90
32787;DHT22;19139;49.372;8.580;2024-02-23T08:58:38;8.90;99.90
32787;DHT22;19139;49.372;8.580;2024-02-23T09:01:05;8.90;99.90
32787;DHT22;19139;49.372;8.580;2024-02-23T09:03:32;8.90;99.90
32787;DHT22;19139;49.372;8.580;2024-02-23T09:05:59;8.90;99.90
32787;DHT22;19139;49.372;8.580;2024-02-23T09:08:25;8.90;99.90
32787;DHT22;19139;49.372;8.580;2024-02-23T09:10:52;9.10;99.90
32787;DHT22;19139;49.372;8.580;2024-02-23T09:13:19;9.10;99.90
32787;DHT22;19139;49.372;8.580;2024-02-23T09:15:46;9.20;99.90
32787;DHT22;19139;49.372;8.580;2024-02-23T09:18:13;9.10;99.90
32787;DHT22;19139;49.372;8.580;2024-02-23T09:20:39;9.00;99.90
32787;DHT22;19139;49.372;8.580;2024-02-23T09:23:06;9.00;99.90
32787;DHT22;19139;49.372;8.580;2024-02-23T09:25:33;9.10;99.90
32787;DHT22;19139;49.372;8.580;2024-02-23T09:28:00;9.20;99.90
32787;DHT22;19139;49.372;8.580;2024-02-23T09:30:26;9.30;99.90
32787;DHT22;19139;49.372;8.580;2024-02-23T09:32:53;9.30;99.90
32787;DHT22;19139;49.372;8.580;2024-02-23T09:35:21;9.30;99.90
32787;DHT22;19139;49.372;8.580;2024-02-23T09:37:48;9.40;99.90
32787;DHT22;19139;49.372;8.580;2024-02-23T09:40:15;9.40;99.90
32787;DHT22;19139;49.372;8.580;2024-02-23T09:42:43;9.40;99.90
32787;DHT22;19139;49.372;8.580;2024-02-23T09:45:15;9.40;99.90
32787;DHT22;19139;49.372;8.580;2024-02-23T09:47:44;9.50;99.90
32787;DHT22;19139;49.372;8.580;2024-02-23T09:50:12;9.40;99.90
32787;DHT22;19139;49.372;8.580;2024-02-23T09:52:40;9.40;99.90
32787;DHT22;19139;49.372;8.580;2024-02-23T09:55:07;9.50;99.90
32787;DHT22;19139;49.372;8.580;2024-02-23T09:57:34;9.60;99.90
32787;DHT22;19139;49.372;8.580;2024-02-23T10:00:02;9.70;99.90
32787;DHT22;19139;49.372;8.580;2024-02-23T10:02:32;9.70;99.90
32787;DHT22;19139;49.372;8.580;2024-02-23T10:05:00;9.70;99.90
32787;DHT22;19139;49.372;8.580;2024-02-23T10:07:28;9.80;99.90
32787;DHT22;19139;49.372;8.580;2024-02-23T10:09:54;9.80;99.90
32787;DHT22;19139;49.372;8.580;2024-02-23T10:12:22;9.80;99.90
32787;DHT22;19139;49.372;8.580;2024-02-23T10:14:48;9.70;99.90
32787;DHT22;19139;49.372;8.580;2024-02-23T10:17:15;9.60;99.90
32787;DHT22;19139;49.372;8.580;2024-02-23T10:19:43;9.60;99.90
32787;DHT22;19139;49.372;8.580;2024-02-23T10:22:10;9.60;99.90
32787;DHT22;19139;49.372;8.580;2024-02-23T10:24:37;9.70;99.90
32787;DHT22;19139;49.372;8.580;2024-02-23T10:27:04;9.70;99.90
32787;DHT22;19139;49.372;8.580;2024-02-23T10:29:30;9.80;99.90
32787;DHT22;19139;49.372;8.580;2024-02-23T10:31:57;10.10;99.90
32787;DHT22;19139;49.372;8.580;2024-02-23T10:34:27;10.20;99.90
32787;DHT22;19139;49.372;8.580;2024-02-23T10:36:56;10.20;99.90
32787;DHT22;19139;49.372;8.580;2024-02-23T10:39:24;10.30;99.90
32787;DHT22;19139;49.372;8.580;2024-02-23T10:42:00;10.40;99.90
32787;DHT22;19139;49.372;8.580;2024-02-23T10:44:29;10.30;99.90
32787;DHT22;19139;49.372;8.580;2024-02-23T10:46:58;10.10;99.90
32787;DHT22;19139;49.372;8.580;2024-02-23T10:49:29;9.90;99.90
32787;DHT22;19139;49.372;8.580;2024-02-23T10:51:57;9.90;99.90
32787;DHT22;19139;49.372;8.580;2024-02-23T10:54:25;9.90;99.90
32787;DHT22;19139;49.372;8.580;2024-02-23T10:56:53;10.00;99.90
32787;DHT22;19139;49.372;8.580;2024-02-23T10:59:22;10.00;99.90
32787;DHT22;19139;49.372;8.580;2024-02-23T11:01:51;10.20;99.90
32787;DHT22;19139;49.372;8.580;2024-02-23T11:04:20;10.20;99.90
32787;DHT22;19139;49.372;8.580;2024-02-23T11:06:51;10.20;99.90
32787;DHT22;19139;49.372;8.580;2024-02-23T11:09:21;10.20;99.90
32787;DHT22;19139;49.372;8.580;2024-02-23T11:11:55;10.30;99.90
32787;DHT22;19139;49.372;8.580;2024-02-23T11:14:38;10.30;99.90
32787;DHT22;19139;49.372;8.580;2024-02-23T11:17:06;10.40;99.70
32787;DHT22;19139;49.372;8.580;2024-02-23T11:19:34;10.30;99.80
32787;DHT22;19139;49.372;8.580;2024-02-23T11:22:02;10.40;99.80
32787;DHT22;19139;49.372;8.580;2024-02-23T11:24:32;10.50;99.90
32787;DHT22;19139;49.372;8.580;2024-02-23T11:27:00;10.80;99.90
32787;DHT22;19139;49.372;8.580;2024-02-23T11:29:34;10.80;99.30
32787;DHT22;19139;49.372;8.580;2024-02-23T11:32:03;10.70;99.30
32787;DHT22;19139;49.372;8.580;2024-02-23T11:34:31;10.70;99.30
32787;DHT22;19139;49.372;8.580;2024-02-23T11:36:58;10.80;99.20
32787;DHT22;19139;49.372;8.580;2024-02-23T11:39:34;10.70;99.60
32787;DHT22;19139;49.372;8.580;2024-02-23T11:42:02;10.50;98.90
32787;DHT22;19139;49.372;8.580;2024-02-23T11:44:30;10.50;99.20
32787;DHT22;19139;49.372;8.580;2024-02-23T11:46:58;10.60;99.30
32787;DHT22;19139;49.372;8.580;2024-02-23T11:49:29;10.70;99.00
32787;DHT22;19139;49.372;8.580;2024-02-23T11:51:56;10.50;98.70
32787;DHT22;19139;49.372;8.580;2024-02-23T11:54:23;10.40;98.70
32787;DHT22;19139;49.372;8.580;2024-02-23T11:56:50;10.40;99.30
32787;DHT22;19139;49.372;8.580;2024-02-23T11:59:20;10.40;99.30
32787;DHT22;19139;49.372;8.580;2024-02-23T12:01:47;10.30;99.60
32787;DHT22;19139;49.372;8.580;2024-02-23T12:04:14;10.40;99.50
32787;DHT22;19139;49.372;8.580;2024-02-23T12:06:42;10.50;99.50
32787;DHT22;19139;49.372;8.580;2024-02-23T12:09:09;10.50;99.10
32787;DHT22;19139;49.372;8.580;2024-02-23T12:11:37;10.50;99.10
32787;DHT22;19139;49.372;8.580;2024-02-23T12:14:05;10.50;99.00
32787;DHT22;19139;49.372;8.580;2024-02-23T12:16:35;10.50;98.70
32787;DHT22;19139;49.372;8.580;2024-02-23T12:19:05;10.60;99.30
32787;DHT22;19139;49.372;8.580;2024-02-23T12:21:34;10.80;99.10
32787;DHT22;19139;49.372;8.580;2024-02-23T12:24:06;10.80;99.30
32787;DHT22;19139;49.372;8.580;2024-02-23T12:26:34;10.70;99.60
32787;DHT22;19139;49.372;8.580;2024-02-23T12:29:02;10.70;98.70
32787;DHT22;19139;49.372;8.580;2024-02-23T12:31:32;10.60;98.80
32787;DHT22;19139;49.372;8.580;2024-02-23T12:33:59;10.70;99.20
32787;DHT22;19139;49.372;8.580;2024-02-23T12:36:27;11.20;99.00
32787;DHT22;19139;49.372;8.580;2024-02-23T12:38:54;11.20;99.10
32787;DHT22;19139;49.372;8.580;2024-02-23T12:41:21;11.00;98.70
32787;DHT22;19139;49.372;8.580;2024-02-23T12:43:49;10.70;98.70
32787;DHT22;19139;49.372;8.580;2024-02-23T12:46:15;10.70;99.20
32787;DHT22;19139;49.372;8.580;2024-02-23T12:48:42;10.70;99.60
32787;DHT22;19139;49.372;8.580;2024-02-23T12:51:09;10.80;99.40
32787;DHT22;19139;49.372;8.580;2024-02-23T12:53:38;11.00;99.40
32787;DHT22;19139;49.372;8.580;2024-02-23T12:56:10;11.10;99.00
32787;DHT22;19139;49.372;8.580;2024-02-23T12:58:41;10.90;98.70
32787;DHT22;19139;49.372;8.580;2024-02-23T13:01:08;11.40;98.40
32787;DHT22;19139;49.372;8.580;2024-02-23T13:03:37;11.50;97.60
32787;DHT22;19139;49.372;8.580;2024-02-23T13:06:05;11.60;97.80
32787;DHT22;19139;49.372;8.580;2024-02-23T13:08:32;11.60;97.30
32787;DHT22;19139;49.372;8.580;2024-02-23T13:10:59;11.50;97.50
32787;DHT22;19139;49.372;8.580;2024-02-23T13:13:26;11.40;97.30
32787;DHT22;19139;49.372;8.580;2024-02-23T13:15:53;11.40;97.10
32787;DHT22;19139;49.372;8.580;2024-02-23T13:18:20;11.30;97.00
32787;DHT22;19139;49.372;8.580;2024-02-23T13:20:48;11.50;96.70
32787;DHT22;19139;49.372;8.580;2024-02-23T13:23:15;11.50;96.70
32787;DHT22;19139;49.372;8.580;2024-02-23T13:25:43;11.60;96.20
32787;DHT22;19139;49.372;8.580;2024-02-23T13:28:11;11.60;96.40
32787;DHT22;19139;49.372;8.580;2024-02-23T13:30:38;12.00;96.90
32787;DHT22;19139;49.372;8.580;2024-02-23T13:33:05;12.00;96.30
32787;DHT22;19139;49.372;8.580;2024-02-23T13:35:33;12.00;96.10
32787;DHT22;19139;49.372;8.580;2024-02-23T13:38:00;11.90;95.90
32787;DHT22;19139;49.372;8.580;2024-02-23T13:40:30;11.60;96.00
32787;DHT22;19139;49.372;8.580;2024-02-23T13:42:58;11.80;96.60
32787;DHT22;19139;49.372;8.580;2024-02-23T13:45:25;11.70;96.20
32787;DHT22;19139;49.372;8.580;2024-02-23T13:48:00;11.70;96.10
32787;DHT22;19139;49.372;8.580;2024-02-23T13:50:27;11.60;95.80
32787;DHT22;19139;49.372;8.580;2024-02-23T13:52:54;11.60;95.90
32787;DHT22;19139;49.372;8.580;2024-02-23T13:55:22;11.70;96.20
32787;DHT22;19139;49.372;8.580;2024-02-23T13:57:49;11.50;96.30
32787;DHT22;19139;49.372;8.580;2024-02-23T14:00:17;11.40;95.40
32787;DHT22;19139;49.372;8.580;2024-02-23T14:02:46;11.50;95.60
32787;DHT22;19139;49.372;8.580;2024-02-23T14:05:13;11.40;95.90
32787;DHT22;19139;49.372;8.580;2024-02-23T14:07:42;11.30;95.80
32787;DHT22;19139;49.372;8.580;2024-02-23T14:10:09;11.10;96.30
32787;DHT22;19139;49.372;8.580;2024-02-23T14:12:36;11.10;96.30
32787;DHT22;19139;49.372;8.580;2024-02-23T14:15:03;11.10;96.60
32787;DHT22;19139;49.372;8.580;2024-02-23T14:17:31;11.00;96.80
32787;DHT22;19139;49.372;8.580;2024-02-23T14:19:58;11.00;96.80
32787;DHT22;19139;49.372;8.580;2024-02-23T14:22:25;11.00;96.80
32787;DHT22;19139;49.372;8.580;2024-02-23T14:24:54;11.10;96.60
32787;DHT22;19139;49.372;8.580;2024-02-23T14:27:21;11.00;96.20
32787;DHT22;19139;49.372;8.580;2024-02-23T14:29:47;11.10;96.50
32787;DHT22;19139;49.372;8.580;2024-02-23T14:32:16;11.10;96.30
32787;DHT22;19139;49.372;8.580;2024-02-23T14:34:43;11.30;95.90
32787;DHT22;19139;49.372;8.580;2024-02-23T14:37:10;11.20;95.70
32787;DHT22;19139;49.372;8.580;2024-02-23T14:39:37;11.20;95.60
32787;DHT22;19139;49.372;8.580;2024-02-23T14:42:04;11.20;95.80
32787;DHT22;19139;49.372;8.580;2024-02-23T14:44:31;11.70;95.70
32787;DHT22;19139;49.372;8.580;2024-02-23T14:46:57;13.00;92.90
32787;DHT22;19139;49.372;8.580;2024-02-23T14:49:24;12.10;93.90
32787;DHT22;19139;49.372;8.580;2024-02-23T14:51:51;14.30;93.20
32787;DHT22;19139;49.372;8.580;2024-02-23T14:54:18;15.10;87.70
32787;DHT22;19139;49.372;8.580;2024-02-23T14:56:45;13.50;91.30
32787;DHT22;19139;49.372;8.580;2024-02-23T14:59:11;12.40;92.80
32787;DHT22;19139;49.372;8.580;2024-02-23T15:01:39;12.10;93.70
32787;DHT22;19139;49.372;8.580;2024-02-23T15:04:09;12.00;93.30
32787;DHT22;19139;49.372;8.580;2024-02-23T15:06:35;11.60;93.90
32787;DHT22;19139;49.372;8.580;2024-02-23T15:09:04;11.60;93.70
32787;DHT22;19139;49.372;8.580;2024-02-23T15:11:31;11.90;93.60
32787;DHT22;19139;49.372;8.580;2024-02-23T15:13:58;12.00;93.10
32787;DHT22;19139;49.372;8.580;2024-02-23T15:16:29;12.00;93.40
32787;DHT22;19139;49.372;8.580;2024-02-23T15:18:59;11.80;93.50
32787;DHT22;19139;49.372;8.580;2024-02-23T15:21:26;11.70;93.70
32787;DHT22;19139;49.372;8.580;2024-02-23T15:23:53;11.70;93.90
32787;DHT22;19139;49.372;8.580;2024-02-23T15:26:20;11.60;94.10
32787;DHT22;19139;49.372;8.580;2024-02-23T15:28:47;11.50;93.90
32787;DHT22;19139;49.372;8.580;2024-02-23T15:31:14;11.40;94.20
32787;DHT22;19139;49.372;8.580;2024-02-23T15:33:40;11.40;93.80
32787;DHT22;19139;49.372;8.580;2024-02-23T15:36:07;11.40;94.10
32787;DHT22;19139;49.372;8.580;2024-02-23T15:38:35;11.30;94.10
32787;DHT22;19139;49.372;8.580;2024-02-23T15:41:04;11.30;93.90